Time;durP1;ratioP1;P1;durP2;ratioP2;P2;SDS_P1;SDS_P2;PMS_P1;PMS_P2;Temp;Humidity;BMP_temperature;BMP_pressure;BME280_temperature;BME280_humidity;BME280_pressure;Samples;Min_cycle;Max_cycle;Signal;HPM_P1;HPM_P2
2022/05/06 12:02:06;;;;;;;4.60;1.45;;;20.10;54.10;;;;;;5075250;27;20385;-53
2022/05/06 12:04:33;;;;;;;3.70;1.30;;;20.00;58.70;;;;;;5038754;28;20522;-50
2022/05/06 12:07:00;;;;;;;7.00;1.85;;;20.10;56.50;;;;;;5052680;28;20045;-48
2022/05/06 12:09:28;;;;;;;3.55;1.45;;;20.30;58.00;;;;;;5051845;28;20033;-55
2022/05/06 12:11:54;;;;;;;3.45;1.80;;;20.40;60.40;;;;;;5049563;28;20052;-51
2022/05/06 12:14:21;;;;;;;4.38;1.88;;;20.50;61.60;;;;;;5042704;28;20075;-48
2022/05/06 12:16:48;;;;;;;6.15;1.92;;;20.60;62.90;;;;;;5043055;28;20065;-49
2022/05/06 12:19:15;;;;;;;4.13;2.42;;;20.70;64.20;;;;;;5048900;28;20040;-50
2022/05/06 12:21:41;;;;;;;6.38;2.85;;;20.80;64.40;;;;;;5041439;28;20064;-55
2022/05/06 12:24:08;;;;;;;5.65;2.83;;;21.00;63.80;;;;;;5082922;28;20743;-54
2022/05/06 12:26:35;;;;;;;3.53;1.67;;;21.10;63.40;;;;;;5049361;28;20033;-51
2022/05/06 12:29:02;;;;;;;6.35;2.03;;;21.10;59.10;;;;;;5049089;28;20033;-52
2022/05/06 12:31:29;;;;;;;4.97;2.00;;;21.10;58.60;;;;;;5049406;28;20049;-50
2022/05/06 12:33:55;;;;;;;3.95;2.10;;;21.10;60.40;;;;;;5081225;28;20519;-51
2022/05/06 12:36:22;;;;;;;8.45;2.28;;;21.10;60.20;;;;;;5058246;28;20033;-54
2022/05/06 12:38:50;;;;;;;5.50;1.77;;;21.20;60.20;;;;;;5053615;28;20037;-48
2022/05/06 12:41:18;;;;;;;2.00;1.05;;;21.20;58.10;;;;;;5056584;28;20113;-48
2022/05/06 12:43:45;;;;;;;2.60;1.30;;;21.30;50.00;;;;;;5077907;28;20053;-45
2022/05/06 12:46:11;;;;;;;6.32;1.35;;;21.30;49.10;;;;;;5045153;28;20456;-49
2022/05/06 12:51:27;;;;;;;2.80;1.20;;;21.30;47.40;;;;;;5046894;28;20049;-51
2022/05/06 12:53:53;;;;;;;3.17;1.55;;;21.30;48.10;;;;;;5053085;28;20065;-46
2022/05/06 12:56:20;;;;;;;4.18;1.20;;;21.30;49.10;;;;;;5048263;28;20042;-48
2022/05/06 12:58:47;;;;;;;3.22;1.60;;;21.30;49.40;;;;;;5049162;28;20444;-48
2022/05/06 13:01:14;;;;;;;2.78;1.52;;;21.30;50.70;;;;;;5048026;28;20064;-50
2022/05/06 13:03:42;;;;;;;4.07;2.10;;;21.30;50.90;;;;;;5049165;28;20488;-52
2022/05/06 13:06:09;;;;;;;2.85;1.90;;;21.40;50.80;;;;;;5048865;28;20095;-48
2022/05/06 13:08:36;;;;;;;3.80;2.20;;;21.40;50.40;;;;;;5048972;28;20033;-48
2022/05/06 13:11:03;;;;;;;4.25;1.52;;;21.50;50.70;;;;;;5048782;28;20389;-50
2022/05/06 13:13:29;;;;;;;5.22;1.65;;;21.70;50.90;;;;;;5035508;28;20119;-48
2022/05/06 13:15:58;;;;;;;2.95;1.58;;;21.80;50.80;;;;;;5036072;28;20095;-49
2022/05/06 13:18:24;;;;;;;5.72;1.60;;;21.90;49.10;;;;;;5035067;28;20042;-50
2022/05/06 13:20:51;;;;;;;3.53;1.63;;;21.90;50.60;;;;;;5035448;28;20037;-52
2022/05/06 13:23:18;;;;;;;6.97;1.88;;;21.90;48.20;;;;;;5035422;28;20116;-51
2022/05/06 13:25:45;;;;;;;5.10;2.13;;;21.90;50.40;;;;;;5034949;28;20128;-55
2022/05/06 13:28:12;;;;;;;2.67;1.50;;;22.00;50.60;;;;;;5035435;28;20068;-50
2022/05/06 13:30:39;;;;;;;4.22;1.75;;;22.10;50.60;;;;;;5035425;28;20080;-52
2022/05/06 13:33:05;;;;;;;3.55;1.58;;;22.10;47.60;;;;;;5035218;28;20485;-51
2022/05/06 13:35:32;;;;;;;3.03;1.50;;;22.10;48.60;;;;;;5035255;28;20042;-52
2022/05/06 13:37:59;;;;;;;5.22;1.65;;;22.10;47.90;;;;;;5035378;28;20068;-46
2022/05/06 13:40:26;;;;;;;6.45;1.58;;;22.10;48.80;;;;;;5034440;28;20519;-54
2022/05/06 13:42:53;;;;;;;3.17;1.50;;;22.10;49.40;;;;;;5035180;28;20064;-47
2022/05/06 13:45:19;;;;;;;5.68;1.98;;;22.10;49.60;;;;;;5035168;28;20037;-45
2022/05/06 13:47:46;;;;;;;4.00;1.67;;;22.10;49.90;;;;;;5027955;28;20493;-50
2022/05/06 13:50:13;;;;;;;5.72;1.75;;;22.00;49.50;;;;;;5028695;28;20515;-52
2022/05/06 13:52:40;;;;;;;5.00;2.10;;;22.10;50.10;;;;;;5034781;28;20051;-48
2022/05/06 13:55:06;;;;;;;4.78;1.88;;;22.20;51.00;;;;;;5034919;28;20042;-53
2022/05/06 14:00:27;;;;;;;;;;;22.40;50.60;;;;;;5034685;28;20115;-50
2022/05/06 14:02:54;;;;;;;4.20;1.50;;;22.50;49.30;;;;;;5033723;28;19975;-53
2022/05/06 14:05:23;;;;;;;4.03;1.60;;;22.40;50.00;;;;;;5034992;28;20049;-52
2022/05/06 14:07:50;;;;;;;3.65;1.55;;;22.40;48.20;;;;;;5034875;28;20049;-52
2022/05/06 14:10:17;;;;;;;5.07;1.50;;;22.30;48.60;;;;;;5034082;28;20053;-46
2022/05/06 14:12:45;;;;;;;6.55;1.50;;;22.40;48.20;;;;;;5034380;28;20041;-50
2022/05/06 14:15:12;;;;;;;2.83;1.70;;;22.40;46.80;;;;;;5033888;28;20120;-49
2022/05/06 14:17:39;;;;;;;3.67;1.40;;;22.40;48.50;;;;;;5034168;28;20093;-48
2022/05/06 14:20:06;;;;;;;4.13;1.50;;;22.40;49.60;;;;;;5032798;28;20061;-50
2022/05/06 14:22:32;;;;;;;3.28;1.58;;;22.40;49.10;;;;;;5033352;28;20110;-49
2022/05/06 14:24:59;;;;;;;4.82;1.67;;;22.50;50.50;;;;;;5032547;28;20408;-49
2022/05/06 14:27:27;;;;;;;4.68;1.73;;;22.60;48.80;;;;;;5033161;28;20034;-52
2022/05/06 14:29:54;;;;;;;4.45;1.58;;;22.60;48.60;;;;;;5033285;28;20113;-51
2022/05/06 14:32:21;;;;;;;5.13;1.85;;;22.50;48.30;;;;;;5033054;28;20045;-50
2022/05/06 14:34:48;;;;;;;5.95;1.75;;;22.40;50.30;;;;;;5032673;28;20045;-49
2022/05/06 14:37:14;;;;;;;3.90;1.52;;;22.50;50.50;;;;;;5033228;28;20459;-55
2022/05/06 14:39:41;;;;;;;4.05;1.70;;;22.50;48.80;;;;;;5032993;28;20451;-55
2022/05/06 14:42:08;;;;;;;4.13;1.83;;;22.50;49.30;;;;;;5033081;28;20042;-49
2022/05/06 14:44:35;;;;;;;4.53;1.60;;;22.60;49.00;;;;;;5033054;28;20087;-50
2022/05/06 14:47:02;;;;;;;4.13;1.70;;;22.50;48.70;;;;;;5033227;28;20045;-49
2022/05/06 14:49:29;;;;;;;4.00;1.98;;;22.40;49.90;;;;;;5065285;28;20048;-46
2022/05/06 14:51:58;;;;;;;3.72;1.70;;;22.40;49.30;;;;;;5033804;28;20139;-45
2022/05/06 14:54:25;;;;;;;4.63;1.42;;;22.50;49.80;;;;;;5033827;28;20120;-47
2022/05/06 14:56:51;;;;;;;7.15;1.85;;;22.40;48.50;;;;;;5033862;28;20385;-49
2022/05/06 14:59:18;;;;;;;5.40;2.13;;;22.50;50.50;;;;;;5033734;28;20044;-46
2022/05/06 15:01:46;;;;;;;3.97;1.70;;;22.60;49.10;;;;;;5032647;28;20045;-46
2022/05/06 15:04:16;;;;;;;4.00;1.40;;;22.70;49.80;;;;;;5033641;28;20040;-51
2022/05/06 15:06:43;;;;;;;5.53;1.50;;;22.70;49.30;;;;;;5033686;28;20111;-49
2022/05/06 15:09:09;;;;;;;4.72;1.50;;;22.70;50.20;;;;;;5034053;28;20038;-49
2022/05/06 15:11:36;;;;;;;4.60;1.70;;;22.70;50.20;;;;;;5033642;28;20530;-51
2022/05/06 15:14:03;;;;;;;7.00;1.90;;;22.80;51.60;;;;;;5033714;28;20432;-51
2022/05/06 15:16:30;;;;;;;3.47;1.50;;;22.70;49.30;;;;;;5033403;28;20080;-49
2022/05/06 15:21:42;;;;;;;5.55;1.90;;;22.70;48.80;;;;;;5033188;28;20176;-54
2022/05/06 15:24:08;;;;;;;6.20;2.03;;;22.70;49.40;;;;;;5033335;28;20452;-51
2022/05/06 15:26:35;;;;;;;3.17;1.50;;;22.70;48.10;;;;;;5033335;28;20037;-51
2022/05/06 15:29:02;;;;;;;4.40;1.50;;;22.70;49.00;;;;;;5033173;28;20508;-49
2022/05/06 15:31:29;;;;;;;3.00;1.58;;;22.60;49.20;;;;;;5032955;28;20049;-51
2022/05/06 15:33:56;;;;;;;3.75;1.40;;;22.60;48.20;;;;;;5033049;28;20045;-49
2022/05/06 15:36:23;;;;;;;5.35;1.60;;;22.60;47.90;;;;;;5032749;28;20099;-54
2022/05/06 15:38:49;;;;;;;7.43;1.70;;;22.50;48.00;;;;;;5033010;28;20400;-48
2022/05/06 15:41:16;;;;;;;2.95;1.40;;;22.50;49.40;;;;;;5033003;28;20084;-52
2022/05/06 15:43:43;;;;;;;5.45;2.00;;;22.60;50.20;;;;;;5033045;28;20488;-49
2022/05/06 15:46:10;;;;;;;4.38;1.50;;;22.60;49.00;;;;;;5033095;28;20095;-52
2022/05/06 15:48:37;;;;;;;6.22;1.85;;;22.60;49.10;;;;;;5032928;28;20056;-51
2022/05/06 15:51:04;;;;;;;3.03;1.77;;;22.50;50.10;;;;;;5032833;28;20095;-50
2022/05/06 15:53:30;;;;;;;6.13;1.80;;;22.50;50.80;;;;;;5032784;28;20046;-53
2022/05/06 15:55:57;;;;;;;3.00;1.65;;;22.50;51.90;;;;;;5032884;28;20091;-50
2022/05/06 15:58:24;;;;;;;6.07;1.60;;;22.40;51.10;;;;;;5032897;28;20119;-51
2022/05/06 16:00:50;;;;;;;8.07;1.67;;;22.40;51.20;;;;;;5031992;28;20053;-52
2022/05/06 16:03:17;;;;;;;5.65;1.50;;;22.30;49.70;;;;;;5032749;28;20377;-49
2022/05/06 16:05:44;;;;;;;6.47;1.65;;;22.20;49.80;;;;;;5031492;28;20437;-55
2022/05/06 16:08:11;;;;;;;5.15;1.88;;;22.20;49.30;;;;;;5032937;28;20076;-50
2022/05/06 16:10:37;;;;;;;6.75;1.85;;;22.10;49.20;;;;;;5032872;28;20042;-51
2022/05/06 16:13:04;;;;;;;3.58;1.70;;;22.10;50.20;;;;;;5032825;28;20386;-51
2022/05/06 16:15:31;;;;;;;4.43;1.60;;;22.10;51.00;;;;;;5032775;28;20092;-53
2022/05/06 16:17:58;;;;;;;5.65;2.00;;;22.20;52.00;;;;;;5032682;28;20045;-53
2022/05/06 16:20:31;;;;;;;4.88;1.80;;;22.20;51.70;;;;;;5032761;28;20099;-54
2022/05/06 16:22:58;;;;;;;3.63;1.75;;;22.10;53.00;;;;;;5032573;28;20045;-49
2022/05/06 16:25:25;;;;;;;5.63;1.70;;;22.00;53.60;;;;;;5032844;28;20046;-51
2022/05/06 16:27:52;;;;;;;6.32;1.75;;;21.90;53.70;;;;;;5032676;28;20500;-50
2022/05/06 16:30:19;;;;;;;8.88;1.90;;;21.70;54.40;;;;;;5032243;28;20505;-52
2022/05/06 16:32:46;;;;;;;4.57;2.15;;;21.70;54.90;;;;;;5032365;28;20053;-49
2022/05/06 16:37:58;;;;;;;5.80;2.33;;;21.50;56.40;;;;;;5032564;28;20042;-49
2022/05/06 16:40:25;;;;;;;8.23;1.83;;;21.50;56.40;;;;;;5032420;28;20404;-49
2022/05/06 16:42:52;;;;;;;3.97;1.90;;;21.50;56.70;;;;;;5032347;28;20041;-46
2022/05/06 16:45:19;;;;;;;7.65;2.53;;;21.60;57.60;;;;;;5032457;28;20506;-53
2022/05/06 16:47:46;;;;;;;7.90;2.50;;;21.60;60.60;;;;;;5034293;28;20076;-49
2022/05/06 16:50:12;;;;;;;7.22;2.03;;;21.50;62.10;;;;;;5036318;28;20455;-49
2022/05/06 16:52:39;;;;;;;4.07;2.13;;;21.40;62.80;;;;;;5035976;28;20049;-48
2022/05/06 16:55:06;;;;;;;6.25;1.80;;;21.30;63.40;;;;;;5036064;28;20519;-48
2022/05/06 16:57:33;;;;;;;4.53;2.00;;;21.20;64.20;;;;;;5035858;28;20052;-50
2022/05/06 16:59:59;;;;;;;6.93;2.00;;;21.20;64.50;;;;;;5035791;28;20558;-52
2022/05/06 17:02:31;;;;;;;6.55;1.70;;;21.10;64.90;;;;;;5035079;28;20091;-51
2022/05/06 17:04:58;;;;;;;6.90;2.17;;;21.00;65.40;;;;;;5035574;28;20476;-46
2022/05/06 17:07:26;;;;;;;7.50;1.80;;;20.90;65.80;;;;;;5035806;28;20046;-45
2022/05/06 17:09:53;;;;;;;4.82;1.60;;;20.80;66.80;;;;;;5035724;28;20064;-48
2022/05/06 17:12:20;;;;;;;5.70;1.80;;;20.60;67.70;;;;;;5035910;28;20100;-50
2022/05/06 17:14:47;;;;;;;5.07;1.67;;;20.40;68.30;;;;;;5036014;28;20448;-52
2022/05/06 17:17:14;;;;;;;5.95;1.92;;;20.50;68.70;;;;;;5067805;28;20162;-46
2022/05/06 17:19:41;;;;;;;6.60;2.10;;;20.40;69.20;;;;;;5035787;28;20448;-50
2022/05/06 17:22:08;;;;;;;5.68;2.00;;;20.40;68.90;;;;;;5035713;28;20088;-55
2022/05/06 17:24:34;;;;;;;9.77;2.00;;;20.30;69.20;;;;;;5035566;28;20083;-48
2022/05/06 17:27:01;;;;;;;4.18;1.50;;;20.20;70.30;;;;;;5035548;28;20099;-50
2022/05/06 17:29:28;;;;;;;3.70;2.20;;;20.10;70.50;;;;;;5035594;28;20124;-52
2022/05/06 17:31:54;;;;;;;7.68;2.75;;;20.10;71.00;;;;;;5035423;28;20060;-51
2022/05/06 17:34:21;;;;;;;5.35;1.73;;;20.00;71.60;;;;;;5035833;28;20056;-49
2022/05/06 17:36:49;;;;;;;10.55;2.75;;;20.00;71.80;;;;;;5035396;28;20052;-48
2022/05/06 17:39:15;;;;;;;7.32;2.17;;;19.90;72.70;;;;;;5035411;28;20073;-48
2022/05/06 17:41:42;;;;;;;5.43;1.98;;;19.90;73.30;;;;;;5035115;28;20060;-50
2022/05/06 17:44:09;;;;;;;5.55;1.80;;;19.80;73.60;;;;;;5035463;28;20484;-49
2022/05/06 17:46:37;;;;;;;6.22;2.60;;;19.70;74.40;;;;;;5034065;28;20057;-47
2022/05/06 17:49:07;;;;;;;5.15;2.78;;;19.60;75.30;;;;;;5033851;28;20037;-46
2022/05/06 17:51:33;;;;;;;6.35;2.15;;;19.60;76.00;;;;;;5035020;28;20460;-46
2022/05/06 17:54:02;;;;;;;7.45;2.92;;;19.50;76.40;;;;;;5034989;28;20046;-48
2022/05/06 17:56:31;;;;;;;10.68;2.70;;;19.30;77.30;;;;;;5035019;28;20045;-48
2022/05/06 17:58:57;;;;;;;5.45;2.53;;;19.20;78.20;;;;;;5034954;28;20042;-50
2022/05/06 18:01:25;;;;;;;6.68;2.10;;;19.10;78.80;;;;;;5033881;28;20049;-49
2022/05/06 18:03:52;;;;;;;3.58;1.95;;;19.10;79.50;;;;;;5034917;28;20408;-51
2022/05/06 18:06:18;;;;;;;5.78;2.92;;;18.90;80.10;;;;;;5034775;28;20128;-52
2022/05/06 18:08:45;;;;;;;8.52;3.10;;;18.80;80.60;;;;;;5034808;28;20033;-50
2022/05/06 18:11:12;;;;;;;4.75;2.00;;;18.70;80.90;;;;;;5049957;28;20463;-50
2022/05/06 18:13:39;;;;;;;4.60;2.30;;;18.70;81.00;;;;;;5034761;28;20099;-46
2022/05/06 18:16:05;;;;;;;6.43;2.28;;;18.60;81.40;;;;;;5034750;28;20103;-47
2022/05/06 18:18:32;;;;;;;4.82;1.90;;;18.40;82.70;;;;;;5066698;28;20104;-53
2022/05/06 18:20:59;;;;;;;5.55;2.05;;;18.30;82.70;;;;;;5033224;28;20053;-49
2022/05/06 18:23:26;;;;;;;6.93;2.10;;;18.30;83.00;;;;;;5034489;28;20037;-47
2022/05/06 18:25:58;;;;;;;8.70;3.75;;;18.20;82.90;;;;;;5034631;28;20095;-52
2022/05/06 18:28:25;;;;;;;8.15;2.88;;;18.30;83.20;;;;;;5034514;28;20041;-49
2022/05/06 18:30:52;;;;;;;4.35;2.35;;;18.20;83.40;;;;;;5034406;28;20037;-47
2022/05/06 18:33:19;;;;;;;5.22;2.20;;;18.20;83.90;;;;;;5066231;28;20068;-52
2022/05/06 18:35:45;;;;;;;5.78;2.35;;;18.10;84.20;;;;;;5034376;28;20072;-45
2022/05/06 18:38:12;;;;;;;3.42;1.80;;;18.10;84.60;;;;;;5034220;28;20049;-46
2022/05/06 18:40:39;;;;;;;5.20;2.60;;;18.00;84.90;;;;;;5034085;28;20041;-53
2022/05/06 18:43:06;;;;;;;3.97;1.98;;;18.00;85.20;;;;;;5033935;28;20034;-52
2022/05/06 18:45:32;;;;;;;4.10;2.10;;;18.00;85.60;;;;;;5034065;28;20041;-51
2022/05/06 18:47:59;;;;;;;4.57;2.40;;;17.90;85.70;;;;;;5034107;28;20095;-54
2022/05/06 18:50:26;;;;;;;7.50;2.65;;;17.80;85.90;;;;;;5034124;28;20048;-49
2022/05/06 18:52:53;;;;;;;6.28;1.92;;;17.70;86.00;;;;;;5033924;28;20069;-52
2022/05/06 18:55:21;;;;;;;4.03;2.15;;;17.60;85.80;;;;;;5034014;28;20485;-47
2022/05/06 18:57:48;;;;;;;2.92;1.40;;;17.60;86.00;;;;;;5034118;28;20046;-52
2022/05/06 19:00:14;;;;;;;3.97;1.73;;;17.50;86.50;;;;;;5033717;28;20127;-47
2022/05/06 19:02:41;;;;;;;3.13;1.30;;;17.40;86.40;;;;;;5032788;28;20041;-49
2022/05/06 19:05:08;;;;;;;4.78;1.40;;;17.40;86.20;;;;;;5033683;28;20045;-49
2022/05/06 19:07:35;;;;;;;3.80;1.45;;;17.30;86.30;;;;;;5033711;28;20434;-49
2022/05/06 19:10:02;;;;;;;4.75;1.83;;;17.30;86.60;;;;;;5033262;28;20041;-51
2022/05/06 19:12:29;;;;;;;3.90;2.53;;;17.20;86.80;;;;;;5033554;28;20052;-50
2022/05/06 19:14:56;;;;;;;10.05;4.65;;;17.10;87.20;;;;;;5032213;28;20053;-49
2022/05/06 19:17:23;;;;;;;5.20;2.47;;;17.10;87.70;;;;;;5033452;28;20138;-47
2022/05/06 19:19:50;;;;;;;3.42;1.88;;;17.00;87.60;;;;;;5033584;28;20045;-45
2022/05/06 19:25:02;;;;;;;2.28;1.30;;;16.90;88.40;;;;;;5033397;28;20112;-48
2022/05/06 19:27:28;;;;;;;5.13;1.63;;;16.90;88.40;;;;;;5033210;28;20070;-51
2022/05/06 19:29:55;;;;;;;4.32;1.60;;;16.80;88.90;;;;;;5033161;28;20046;-48
2022/05/06 19:32:23;;;;;;;2.08;1.13;;;16.70;89.60;;;;;;5033291;28;20041;-51
2022/05/06 19:34:51;;;;;;;3.33;1.85;;;16.60;89.70;;;;;;5033304;28;20432;-50
2022/05/06 19:37:18;;;;;;;4.97;1.42;;;16.60;89.80;;;;;;5033182;28;20063;-52
2022/05/06 19:39:45;;;;;;;4.18;1.40;;;16.70;90.00;;;;;;5033126;28;20381;-49
2022/05/06 19:42:12;;;;;;;5.47;2.53;;;16.60;90.00;;;;;;5033131;28;20099;-50
2022/05/06 19:44:40;;;;;;;4.82;2.20;;;16.60;90.10;;;;;;5031816;28;20048;-47
2022/05/06 19:47:06;;;;;;;4.60;1.80;;;16.60;90.20;;;;;;5033264;28;20513;-49
2022/05/06 19:49:33;;;;;;;2.17;1.50;;;16.60;90.30;;;;;;5033092;28;20128;-45
2022/05/06 19:54:45;;;;;;;4.18;1.80;;;16.60;90.40;;;;;;5032862;28;20052;-51
2022/05/06 19:57:13;;;;;;;4.68;1.80;;;16.50;90.50;;;;;;5032832;28;20069;-46
2022/05/06 19:59:39;;;;;;;2.55;1.48;;;16.50;90.50;;;;;;5032939;28;20045;-48
2022/05/06 20:02:06;;;;;;;4.05;1.23;;;16.50;90.60;;;;;;5032730;28;20137;-46
2022/05/06 20:04:33;;;;;;;2.95;1.20;;;16.40;90.70;;;;;;5032820;28;20038;-44
2022/05/06 20:07:00;;;;;;;2.95;1.35;;;16.40;90.90;;;;;;5032198;28;20088;-46
2022/05/06 20:09:26;;;;;;;4.03;1.58;;;16.40;91.00;;;;;;5032682;28;20427;-47
2022/05/06 20:11:53;;;;;;;2.38;1.30;;;16.30;91.00;;;;;;5032714;28;20516;-45
2022/05/06 20:14:20;;;;;;;2.15;1.40;;;16.30;91.20;;;;;;5032983;28;20518;-50
2022/05/06 20:16:47;;;;;;;4.95;2.13;;;16.30;91.30;;;;;;5031488;28;20125;-44
2022/05/06 20:19:14;;;;;;;6.20;1.88;;;16.30;91.40;;;;;;5032792;28;20042;-45
2022/05/06 20:21:41;;;;;;;3.92;1.40;;;16.30;91.40;;;;;;5032876;28;20073;-44
2022/05/06 20:24:08;;;;;;;2.85;1.60;;;16.30;91.60;;;;;;5036690;28;20041;-46
2022/05/06 20:26:34;;;;;;;3.05;1.80;;;16.30;91.50;;;;;;5036750;28;20481;-49
2022/05/06 20:29:01;;;;;;;3.30;2.30;;;16.20;91.50;;;;;;5036584;28;20049;-51
2022/05/06 20:31:28;;;;;;;5.78;1.42;;;16.20;91.40;;;;;;5036505;28;20453;-47
2022/05/06 20:33:55;;;;;;;3.25;1.30;;;16.20;91.40;;;;;;5036398;28;20075;-43
2022/05/06 20:36:22;;;;;;;4.20;1.63;;;16.20;91.40;;;;;;5036285;28;20045;-52
2022/05/06 20:38:49;;;;;;;2.38;1.25;;;16.10;91.40;;;;;;5036496;28;20439;-46
2022/05/06 20:41:16;;;;;;;3.40;1.60;;;16.10;91.50;;;;;;5036432;28;20042;-52
2022/05/06 20:43:42;;;;;;;3.55;1.65;;;16.10;91.40;;;;;;5036361;28;20088;-49
2022/05/06 20:46:09;;;;;;;3.15;1.70;;;16.10;91.40;;;;;;5036391;28;20049;-48
2022/05/06 20:48:36;;;;;;;3.67;1.95;;;16.10;91.50;;;;;;5030047;28;20540;-52
2022/05/06 20:51:03;;;;;;;3.83;1.50;;;16.10;91.50;;;;;;5029770;28;20034;-53
2022/05/06 20:53:29;;;;;;;6.15;1.65;;;16.00;91.60;;;;;;5029695;28;20482;-50
2022/05/06 20:55:56;;;;;;;2.97;1.60;;;16.00;91.60;;;;;;5029690;28;20045;-51
2022/05/06 21:01:10;;;;;;;3.30;1.50;;;15.90;91.40;;;;;;5035971;28;20049;-47
2022/05/06 21:03:37;;;;;;;2.58;1.20;;;15.90;91.40;;;;;;5035207;28;20091;-50
2022/05/06 21:06:04;;;;;;;3.65;2.03;;;15.90;91.40;;;;;;5036109;28;20079;-54
2022/05/06 21:14:02;;;;;;;3.78;1.50;;;15.90;91.50;;;;;;5035495;28;20042;-50
2022/05/06 21:16:29;;;;;;;2.70;1.30;;;15.90;91.50;;;;;;5035967;28;20076;-50
2022/05/06 21:18:56;;;;;;;5.40;1.67;;;15.90;91.50;;;;;;5034518;28;20045;-49
2022/05/06 21:21:23;;;;;;;5.20;1.80;;;15.80;91.40;;;;;;5035193;28;20057;-48
2022/05/06 21:23:50;;;;;;;3.88;1.83;;;15.70;91.40;;;;;;5035442;28;20120;-48
2022/05/06 21:26:16;;;;;;;3.47;1.50;;;15.70;91.50;;;;;;5034954;28;20048;-47
2022/05/06 21:28:43;;;;;;;3.13;1.60;;;15.60;91.60;;;;;;5029361;28;20069;-49
2022/05/06 21:31:10;;;;;;;4.68;1.83;;;15.60;91.70;;;;;;5028826;28;20467;-48
2022/05/06 21:33:37;;;;;;;4.53;1.98;;;15.60;91.70;;;;;;5035065;28;20120;-46
2022/05/06 21:36:04;;;;;;;4.47;1.90;;;15.50;91.80;;;;;;5035529;28;20095;-49
2022/05/06 21:38:30;;;;;;;3.72;1.83;;;15.50;91.80;;;;;;5034739;28;20499;-52
2022/05/06 21:40:59;;;;;;;4.28;2.00;;;15.50;91.90;;;;;;5035078;28;20443;-49
2022/05/06 21:43:26;;;;;;;2.58;1.60;;;15.50;92.00;;;;;;5033813;28;20048;-51
2022/05/06 21:45:52;;;;;;;7.80;1.90;;;15.40;92.00;;;;;;5046114;28;20037;-50
2022/05/06 21:48:19;;;;;;;3.00;1.60;;;15.40;92.10;;;;;;5035111;28;20365;-49
2022/05/06 21:50:46;;;;;;;3.45;1.80;;;15.40;92.20;;;;;;5037563;28;20083;-49
2022/05/06 21:53:13;;;;;;;2.92;1.60;;;15.30;92.40;;;;;;5035166;28;20045;-48
2022/05/06 21:55:40;;;;;;;3.35;1.63;;;15.30;92.50;;;;;;5033964;28;20045;-47
2022/05/06 21:58:07;;;;;;;4.50;1.65;;;15.20;92.60;;;;;;5035160;28;20044;-49
2022/05/06 22:00:34;;;;;;;3.60;2.25;;;15.20;92.70;;;;;;5034077;28;20103;-47
